createdAt,value
2022-10-19T00:09:00.523Z,101972.38
2022-10-19T00:19:06.269Z,101965.38
2022-10-19T00:29:13.411Z,101961.81
2022-10-19T00:39:18.132Z,101962.22
2022-10-19T00:49:24.786Z,101970.94
2022-10-19T00:59:31.817Z,101978.66
2022-10-19T01:09:36.551Z,101973.41
2022-10-19T01:20:11.566Z,101971.75
2022-10-19T01:30:23.648Z,101964.81
2022-10-19T01:40:32.166Z,101956.97
2022-10-19T01:50:41.806Z,101949.22
2022-10-19T02:00:47.472Z,101935.41
2022-10-19T02:10:52.359Z,101922.31
2022-10-19T02:20:55.973Z,101923.69
2022-10-19T02:31:00.921Z,101916.84
2022-10-19T02:41:12.177Z,101911.59
2022-10-19T02:51:36.415Z,101906.94
2022-10-19T03:01:39.335Z,101909.19
2022-10-19T03:11:43.665Z,101897.09
2022-10-19T03:21:46.746Z,101880.00
2022-10-19T03:31:51.200Z,101883.28
2022-10-19T03:41:54.266Z,101884.19
2022-10-19T03:51:58.592Z,101887.69
2022-10-19T04:02:01.503Z,101883.38
2022-10-19T04:12:06.077Z,101885.97
2022-10-19T04:22:08.915Z,101884.25
2022-10-19T04:32:13.220Z,101892.16
2022-10-19T04:42:16.060Z,101891.16
2022-10-19T04:52:20.223Z,101895.47
2022-10-19T05:02:23.284Z,101901.53
2022-10-19T05:12:27.500Z,101886.94
2022-10-19T05:22:30.491Z,101888.09
2022-10-19T05:32:34.842Z,101875.09
2022-10-19T05:42:56.534Z,101872.56
2022-10-19T05:53:00.833Z,101875.88
2022-10-19T06:03:03.931Z,101863.25
2022-10-19T06:13:08.253Z,101860.63
2022-10-19T06:23:11.278Z,101869.22
2022-10-19T06:33:15.727Z,101873.53
2022-10-19T06:43:18.677Z,101899.31
2022-10-19T06:53:22.962Z,101894.06
2022-10-19T07:03:26.515Z,101879.50
2022-10-19T07:13:32.114Z,101871.78
2022-10-19T07:23:37.206Z,101894.16
2022-10-19T07:33:41.721Z,101891.63
2022-10-19T07:43:46.063Z,101884.88
2022-10-19T07:53:50.370Z,101893.41
2022-10-19T08:14:17.994Z,101891.81
2022-10-19T08:24:21.842Z,101891.78
2022-10-19T08:34:26.235Z,101881.50
2022-10-19T08:45:04.865Z,101869.69
2022-10-19T08:55:18.150Z,101848.72
2022-10-19T09:05:33.334Z,101855.63
2022-10-19T09:15:42.649Z,101846.63
2022-10-19T09:25:45.470Z,101853.94
2022-10-19T09:35:50.627Z,101839.81
2022-10-19T09:45:56.515Z,101832.72
2022-10-19T09:56:06.509Z,101829.03
2022-10-19T10:06:13.901Z,101819.34
2022-10-19T10:16:21.420Z,101803.38
2022-10-19T10:26:26.906Z,101803.81
2022-10-19T10:36:32.930Z,101787.94
2022-10-19T10:46:38.268Z,101775.41
2022-10-19T10:56:44.219Z,101760.00
2022-10-19T11:06:54.658Z,101742.78
2022-10-19T11:17:04.611Z,101730.25
2022-10-19T11:27:22.232Z,101721.22
2022-10-19T11:37:31.459Z,101700.16
2022-10-19T11:47:55.539Z,101698.03
2022-10-19T11:58:09.036Z,101683.25
2022-10-19T12:08:30.710Z,101669.16
2022-10-19T12:18:40.335Z,101642.00
2022-10-19T12:28:48.706Z,101625.00
2022-10-19T12:39:02.098Z,101600.72
2022-10-19T12:49:38.468Z,101581.09
2022-10-19T12:59:43.636Z,101570.44
2022-10-19T13:09:49.344Z,101557.06
2022-10-19T13:20:33.765Z,101536.94
2022-10-19T13:31:06.226Z,101521.22
2022-10-19T13:41:21.591Z,101516.75
2022-10-19T13:51:33.727Z,101510.81
2022-10-19T14:01:50.221Z,101507.03
2022-10-19T14:12:06.259Z,101500.19
2022-10-19T14:22:21.574Z,101489.06
2022-10-19T14:32:28.841Z,101474.19
2022-10-19T14:42:43.612Z,101463.19
2022-10-19T14:52:50.505Z,101453.06
2022-10-19T15:02:59.261Z,101447.59
2022-10-19T15:13:06.106Z,101423.22
2022-10-19T15:23:35.633Z,101428.44
2022-10-19T15:33:43.174Z,101426.03
2022-10-19T15:43:52.733Z,101420.16
2022-10-19T15:53:58.573Z,101410.41
2022-10-19T16:04:01.636Z,101407.22
2022-10-19T16:14:05.993Z,101397.53
2022-10-19T16:24:09.620Z,101382.53
2022-10-19T16:34:14.196Z,101368.25
2022-10-19T16:44:17.190Z,101369.13
2022-10-19T16:54:21.515Z,101366.44
2022-10-19T17:04:25.950Z,101367.44
2022-10-19T17:14:30.983Z,101369.56
2022-10-19T17:24:33.841Z,101356.75
2022-10-19T17:34:38.185Z,101355.03
2022-10-19T17:44:40.955Z,101360.97
2022-10-19T17:54:54.509Z,101360.22
2022-10-19T18:05:09.568Z,101349.47
2022-10-19T18:15:14.234Z,101342.44
2022-10-19T18:25:21.721Z,101342.44
2022-10-19T18:35:38.035Z,101331.31
2022-10-19T18:45:41.007Z,101316.00
2022-10-19T18:55:46.156Z,101318.72
2022-10-19T19:05:49.325Z,101312.81
2022-10-19T19:16:00.378Z,101294.44
2022-10-19T19:26:04.436Z,101291.25
2022-10-19T19:36:10.617Z,101282.38
2022-10-19T19:46:15.016Z,101261.91
2022-10-19T19:56:20.707Z,101260.22
2022-10-19T20:06:25.980Z,101251.44
2022-10-19T20:16:33.713Z,101244.56
2022-10-19T20:26:37.259Z,101240.03
2022-10-19T20:36:42.751Z,101235.75
2022-10-19T20:46:46.431Z,101235.69
2022-10-19T20:56:50.696Z,101223.53
2022-10-19T21:06:53.682Z,101215.63
2022-10-19T21:16:59.554Z,101207.84
2022-10-19T21:27:04.919Z,101212.59
2022-10-19T21:37:09.023Z,101196.53
2022-10-19T21:47:11.823Z,101195.53
2022-10-19T21:57:16.329Z,101195.50
2022-10-19T22:07:19.426Z,101184.25
2022-10-19T22:17:23.783Z,101165.66
2022-10-19T22:27:26.765Z,101154.31
2022-10-19T22:37:30.895Z,101130.13
2022-10-19T22:47:33.775Z,101117.25
2022-10-19T22:57:38.058Z,101086.00
2022-10-19T23:07:41.103Z,101060.94
2022-10-19T23:17:45.423Z,101075.38
2022-10-19T23:27:49.454Z,101046.09
2022-10-19T23:37:53.745Z,101049.28
2022-10-19T23:47:56.639Z,101038.66
2022-10-19T23:58:00.896Z,101035.19
